Time;durP1;ratioP1;P1;durP2;ratioP2;P2;SDS_P1;SDS_P2;PMS_P1;PMS_P2;Temp;Humidity;BMP_temperature;BMP_pressure;BME280_temperature;BME280_humidity;BME280_pressure;Samples;Min_cycle;Max_cycle;Signal;HPM_P1;HPM_P2
2023/06/03 00:01:29;;;;;;;72.18;51.10;;;17.00;73.70;;;;;;4966322;28;92302;-85
2023/06/03 00:03:55;;;;;;;73.32;51.47;;;17.00;74.20;;;;;;4965362;28;89132;-85
2023/06/03 00:06:20;;;;;;;73.45;51.78;;;17.00;73.70;;;;;;4975107;28;89305;-85
2023/06/03 00:08:46;;;;;;;72.47;51.70;;;17.00;74.10;;;;;;4968038;28;90058;-85
2023/06/03 00:11:13;;;;;;;74.70;51.45;;;17.00;74.00;;;;;;4967976;28;92727;-85
2023/06/03 00:13:39;;;;;;;74.20;51.75;;;16.90;73.80;;;;;;4968652;28;89260;-84
2023/06/03 00:16:06;;;;;;;72.15;51.25;;;16.90;74.20;;;;;;4975165;28;89095;-85
2023/06/03 00:18:31;;;;;;;71.38;51.03;;;17.00;74.40;;;;;;4968825;28;90107;-85
2023/06/03 00:20:57;;;;;;;73.57;52.28;;;16.90;74.50;;;;;;4985375;28;93434;-84
2023/06/03 00:23:23;;;;;;;71.47;51.72;;;16.90;74.10;;;;;;4965661;28;89328;-84
2023/06/03 00:25:49;;;;;;;73.60;51.40;;;16.90;73.90;;;;;;4969937;28;89890;-85
2023/06/03 00:28:15;;;;;;;72.40;51.55;;;16.90;74.40;;;;;;4970321;28;92174;-85
2023/06/03 00:30:40;;;;;;;72.05;51.13;;;16.80;74.00;;;;;;4974048;28;92773;-85
2023/06/03 00:33:06;;;;;;;73.03;51.53;;;16.90;75.00;;;;;;4994177;28;89365;-85
2023/06/03 00:35:33;;;;;;;71.30;51.60;;;16.90;74.60;;;;;;4971098;28;88772;-85
2023/06/03 00:37:59;;;;;;;70.57;50.63;;;16.80;74.60;;;;;;4965806;28;90732;-85
2023/06/03 00:40:25;;;;;;;71.97;51.75;;;16.80;75.10;;;;;;4966429;28;92873;-85
2023/06/03 00:42:51;;;;;;;72.22;51.47;;;16.70;74.90;;;;;;4968878;28;90423;-84
2023/06/03 00:45:17;;;;;;;73.43;51.15;;;16.70;75.00;;;;;;4968566;28;89314;-84
2023/06/03 00:47:43;;;;;;;72.60;51.53;;;16.70;75.10;;;;;;4964549;28;91832;-84
2023/06/03 00:50:11;;;;;;;72.05;50.92;;;16.70;74.70;;;;;;4982574;28;91659;-85
2023/06/03 00:52:38;;;;;;;72.32;51.25;;;16.70;75.10;;;;;;4967648;28;89173;-84
2023/06/03 00:55:04;;;;;;;73.50;51.95;;;16.80;75.10;;;;;;4966562;28;89226;-84
2023/06/03 00:57:30;;;;;;;71.93;51.45;;;16.70;74.70;;;;;;4964785;28;91644;-84
2023/06/03 00:59:56;;;;;;;73.13;51.67;;;16.70;74.90;;;;;;4965430;28;90185;-84
2023/06/03 01:02:23;;;;;;;70.82;51.28;;;16.70;74.80;;;;;;4970092;28;89152;-84
2023/06/03 01:04:50;;;;;;;72.57;51.30;;;16.70;75.30;;;;;;4964586;28;89327;-84
2023/06/03 01:07:22;;;;;;;73.25;51.60;;;16.60;74.50;;;;;;4963251;28;92504;-84
2023/06/03 01:10:29;;;;;;;74.90;51.28;;;16.60;75.20;;;;;;4988721;28;93557;-84
2023/06/03 01:13:04;;;;;;;71.55;51.78;;;16.60;75.20;;;;;;4966299;28;94771;-84
2023/06/03 01:15:36;;;;;;;73.47;51.60;;;16.60;75.00;;;;;;4966917;28;89209;-85
2023/06/03 01:18:05;;;;;;;70.43;51.28;;;16.60;75.30;;;;;;4963699;28;92916;-85
2023/06/03 01:20:33;;;;;;;70.45;51.70;;;16.60;75.70;;;;;;4960797;28;92121;-84
2023/06/03 01:23:23;;;;;;;74.25;51.85;;;16.60;75.80;;;;;;4980308;28;89191;-84
2023/06/03 01:25:56;;;;;;;72.70;51.45;;;16.50;75.30;;;;;;4980740;28;89327;-84
2023/06/03 01:28:23;;;;;;;71.47;51.38;;;16.60;75.50;;;;;;4966029;28;90280;-84
2023/06/03 01:30:50;;;;;;;71.90;51.25;;;16.50;75.30;;;;;;4967830;28;89798;-84
2023/06/03 01:33:18;;;;;;;71.47;51.80;;;16.50;75.90;;;;;;4984925;28;91766;-84
2023/06/03 01:35:46;;;;;;;73.38;51.70;;;16.50;75.90;;;;;;4965373;28;89693;-84
2023/06/03 01:38:12;;;;;;;73.60;51.90;;;16.50;75.50;;;;;;4965178;28;93501;-84
2023/06/03 01:40:39;;;;;;;69.78;50.88;;;16.50;75.60;;;;;;4968674;28;91618;-84
2023/06/03 01:43:05;;;;;;;72.18;51.78;;;16.50;76.10;;;;;;4967884;28;88948;-84
2023/06/03 01:45:31;;;;;;;70.13;50.92;;;16.50;75.60;;;;;;4979545;28;89939;-84
2023/06/03 01:47:57;;;;;;;71.03;51.55;;;16.50;75.90;;;;;;4966790;28;93032;-84
2023/06/03 01:50:23;;;;;;;72.78;51.67;;;16.50;76.00;;;;;;4971425;28;89754;-84
2023/06/03 01:52:50;;;;;;;70.18;51.03;;;16.50;75.30;;;;;;4971801;28;89394;-84
2023/06/03 01:55:16;;;;;;;71.55;51.70;;;16.50;76.10;;;;;;4968658;28;89958;-84
2023/06/03 01:57:42;;;;;;;74.38;52.05;;;16.40;76.40;;;;;;4966550;28;94752;-84
2023/06/03 02:00:09;;;;;;;71.05;50.78;;;16.50;76.00;;;;;;4966775;28;92667;-84
2023/06/03 02:02:35;;;;;;;73.00;51.55;;;16.50;76.80;;;;;;4966106;28;90389;-84
2023/06/03 02:05:01;;;;;;;73.03;51.63;;;16.50;76.20;;;;;;4971267;28;89319;-84
2023/06/03 02:07:26;;;;;;;70.65;51.30;;;16.40;76.20;;;;;;4962937;28;89330;-84
2023/06/03 02:09:53;;;;;;;72.20;52.58;;;16.50;76.40;;;;;;4968358;28;91531;-84
2023/06/03 02:12:23;;;;;;;71.90;51.90;;;16.50;75.50;;;;;;4972356;28;89558;-84
2023/06/03 02:14:53;;;;;;;73.20;52.10;;;16.40;76.40;;;;;;4968450;28;88602;-85
2023/06/03 02:17:20;;;;;;;73.03;52.05;;;16.40;76.20;;;;;;4972984;28;89568;-84
2023/06/03 02:19:46;;;;;;;71.10;51.10;;;16.40;76.70;;;;;;4966754;28;91610;-84
2023/06/03 02:22:13;;;;;;;70.95;50.72;;;16.40;76.10;;;;;;4969288;28;90502;-84
2023/06/03 02:24:38;;;;;;;70.20;51.08;;;16.50;76.90;;;;;;4968584;28;90529;-84
2023/06/03 02:27:04;;;;;;;70.38;51.17;;;16.40;77.20;;;;;;4965302;28;89795;-84
2023/06/03 02:29:32;;;;;;;70.47;51.38;;;16.40;76.30;;;;;;4968118;28;90429;-84
2023/06/03 02:31:59;;;;;;;70.53;51.03;;;16.40;76.30;;;;;;4971608;28;89166;-85
2023/06/03 02:34:25;;;;;;;70.55;51.60;;;16.40;76.60;;;;;;4968302;28;89220;-85
2023/06/03 02:36:52;;;;;;;71.78;51.25;;;16.40;76.00;;;;;;4966918;28;89908;-84
2023/06/03 02:39:18;;;;;;;71.13;51.75;;;16.40;76.40;;;;;;4966206;28;89490;-84
2023/06/03 02:41:45;;;;;;;70.07;50.72;;;16.40;76.50;;;;;;4963939;28;89135;-84
2023/06/03 02:44:10;;;;;;;70.35;51.35;;;16.40;76.90;;;;;;4971294;28;90410;-84
2023/06/03 02:46:36;;;;;;;71.78;52.13;;;16.40;76.80;;;;;;4969108;28;91474;-84
2023/06/03 02:49:06;;;;;;;70.85;51.53;;;16.40;76.10;;;;;;4982943;28;93154;-84
2023/06/03 02:51:33;;;;;;;71.25;52.38;;;16.30;76.10;;;;;;4972798;28;89440;-84
2023/06/03 02:53:59;;;;;;;72.10;53.33;;;16.30;76.10;;;;;;4965386;28;89469;-84
2023/06/03 02:56:25;;;;;;;72.10;52.20;;;16.40;76.10;;;;;;4969348;28;92204;-84
2023/06/03 02:58:51;;;;;;;72.05;51.78;;;16.30;76.70;;;;;;4965984;28;92601;-84
2023/06/03 03:01:20;;;;;;;70.28;51.80;;;16.30;76.80;;;;;;4967915;28;89314;-84
2023/06/03 03:03:47;;;;;;;70.60;52.28;;;16.30;76.20;;;;;;4970402;28;88607;-84
2023/06/03 03:06:19;;;;;;;71.50;51.80;;;16.30;76.80;;;;;;4966863;28;92053;-84
2023/06/03 03:08:46;;;;;;;72.55;52.85;;;16.30;77.20;;;;;;4971667;28;92699;-84
2023/06/03 03:11:13;;;;;;;73.30;52.55;;;16.30;75.80;;;;;;4984970;28;90362;-84
2023/06/03 03:13:39;;;;;;;69.88;51.45;;;16.30;76.60;;;;;;4965647;28;89462;-84
2023/06/03 03:16:05;;;;;;;70.40;50.63;;;16.30;76.90;;;;;;4986888;28;92874;-84
2023/06/03 03:18:31;;;;;;;71.43;52.70;;;16.30;77.10;;;;;;4969891;28;89624;-85
2023/06/03 03:20:57;;;;;;;71.28;52.40;;;16.30;76.70;;;;;;4970249;28;89195;-84
2023/06/03 03:23:22;;;;;;;70.82;52.40;;;16.30;76.60;;;;;;4970725;28;89080;-84
2023/06/03 03:25:48;;;;;;;71.07;51.75;;;16.30;76.50;;;;;;4969917;28;92631;-84
2023/06/03 03:28:14;;;;;;;71.75;51.97;;;16.30;77.60;;;;;;4971097;28;92520;-84
2023/06/03 03:30:40;;;;;;;70.78;52.10;;;16.30;76.80;;;;;;4973083;28;89167;-84
2023/06/03 03:33:06;;;;;;;72.93;53.05;;;16.30;76.90;;;;;;4974782;28;89051;-84
2023/06/03 03:35:32;;;;;;;70.53;52.20;;;16.20;76.50;;;;;;4969909;28;94106;-84
2023/06/03 03:37:58;;;;;;;72.10;52.03;;;16.20;77.10;;;;;;4971863;28;91938;-84
2023/06/03 03:40:23;;;;;;;69.30;51.30;;;16.20;76.20;;;;;;4985125;28;89256;-83
2023/06/03 03:42:51;;;;;;;70.93;51.58;;;16.20;77.20;;;;;;4971158;28;88822;-84
2023/06/03 03:45:29;;;;;;;70.45;51.30;;;16.20;76.80;;;;;;4978815;28;92868;-84
2023/06/03 03:48:08;;;;;;;70.63;50.75;;;16.20;76.40;;;;;;4984687;28;92090;-84
2023/06/03 03:50:45;;;;;;;72.32;51.78;;;16.20;77.10;;;;;;4989021;28;89328;-84
2023/06/03 03:53:16;;;;;;;72.70;51.65;;;16.20;76.70;;;;;;4969545;28;88966;-84
2023/06/03 03:55:46;;;;;;;73.45;51.58;;;16.20;77.00;;;;;;4963120;28;92407;-84
2023/06/03 03:58:36;;;;;;;68.68;51.30;;;16.20;77.40;;;;;;4967939;28;92279;-84
2023/06/03 04:01:15;;;;;;;71.38;52.30;;;16.20;78.10;;;;;;4972204;28;90821;-84
2023/06/03 04:03:44;;;;;;;70.82;51.10;;;16.20;76.70;;;;;;4973325;28;89228;-84
2023/06/03 04:06:12;;;;;;;71.93;52.67;;;16.20;77.20;;;;;;4966367;28;92991;-83
2023/06/03 04:08:40;;;;;;;70.72;52.20;;;16.20;76.70;;;;;;4965162;28;91670;-84
2023/06/03 04:11:08;;;;;;;71.78;52.53;;;16.20;77.00;;;;;;4982318;28;89352;-84
2023/06/03 04:13:37;;;;;;;73.70;53.97;;;16.20;76.60;;;;;;4969625;28;89519;-84
2023/06/03 04:16:11;;;;;;;72.20;53.10;;;16.20;76.50;;;;;;4968944;28;92790;-84
2023/06/03 04:18:40;;;;;;;73.53;52.78;;;16.20;75.80;;;;;;4983576;28;93137;-85
2023/06/03 04:21:06;;;;;;;72.60;51.97;;;16.20;75.90;;;;;;4968648;28;89512;-85
2023/06/03 04:23:32;;;;;;;69.57;50.97;;;16.30;76.60;;;;;;4963542;28;89003;-85
2023/06/03 04:25:58;;;;;;;71.95;52.63;;;16.30;76.20;;;;;;4966894;28;93844;-85
2023/06/03 04:28:24;;;;;;;70.82;52.17;;;16.30;76.20;;;;;;4968964;28;94061;-85
2023/06/03 04:30:50;;;;;;;71.15;53.30;;;16.40;76.00;;;;;;4967887;28;89897;-85
2023/06/03 04:33:15;;;;;;;70.60;51.20;;;16.30;76.10;;;;;;4986318;28;89409;-85
2023/06/03 04:35:41;;;;;;;71.05;51.45;;;16.30;76.00;;;;;;4967684;28;92079;-84
2023/06/03 04:38:07;;;;;;;72.40;52.58;;;16.40;75.70;;;;;;4990915;28;93785;-85
2023/06/03 04:40:33;;;;;;;69.90;50.65;;;16.40;75.40;;;;;;4984631;28;92707;-85
2023/06/03 04:43:03;;;;;;;72.20;51.28;;;16.50;76.70;;;;;;4964189;28;88574;-85
2023/06/03 04:45:31;;;;;;;70.45;51.58;;;16.50;75.30;;;;;;4963805;28;94082;-86
2023/06/03 04:48:01;;;;;;;70.53;51.22;;;16.50;75.60;;;;;;4966120;28;92046;-85
2023/06/03 04:50:34;;;;;;;71.32;52.38;;;16.50;75.00;;;;;;4966205;28;89817;-85
2023/06/03 04:53:00;;;;;;;74.13;52.78;;;16.50;75.80;;;;;;4966625;28;90033;-85
2023/06/03 04:55:26;;;;;;;72.60;52.45;;;16.50;75.60;;;;;;4973881;28;92855;-85
2023/06/03 04:57:54;;;;;;;70.60;51.55;;;16.50;75.20;;;;;;4961742;28;92055;-85
2023/06/03 05:00:21;;;;;;;72.10;52.58;;;16.60;75.40;;;;;;4963085;28;89844;-85
2023/06/03 05:02:54;;;;;;;71.35;52.40;;;16.60;74.60;;;;;;4968828;28;89607;-85
2023/06/03 05:05:24;;;;;;;71.82;52.28;;;16.60;74.40;;;;;;4968454;28;90554;-85
2023/06/03 05:07:51;;;;;;;72.45;51.10;;;16.60;75.00;;;;;;4965463;28;90515;-85
2023/06/03 05:10:17;;;;;;;72.70;51.28;;;16.60;75.20;;;;;;4970784;28;88800;-85
2023/06/03 05:12:43;;;;;;;71.68;50.97;;;16.70;74.90;;;;;;4969097;28;89046;-86
2023/06/03 05:15:09;;;;;;;70.03;50.75;;;16.70;75.10;;;;;;4968396;28;93339;-85
2023/06/03 05:17:38;;;;;;;69.28;50.97;;;16.70;75.40;;;;;;4965965;28;90431;-85
2023/06/03 05:20:05;;;;;;;69.43;50.50;;;16.80;75.10;;;;;;4963002;28;89931;-85
2023/06/03 05:22:31;;;;;;;71.20;50.72;;;16.90;75.10;;;;;;4973009;28;90803;-86
2023/06/03 05:24:56;;;;;;;69.38;50.50;;;16.90;74.50;;;;;;4969959;28;91915;-85
2023/06/03 05:27:22;;;;;;;71.13;51.35;;;17.00;74.50;;;;;;4969696;28;91768;-85
2023/06/03 05:29:48;;;;;;;70.45;51.42;;;17.00;73.60;;;;;;4970093;28;89270;-85
2023/06/03 05:32:13;;;;;;;71.07;50.88;;;17.00;73.80;;;;;;4971207;28;88843;-85
2023/06/03 05:34:39;;;;;;;72.10;51.03;;;17.10;74.40;;;;;;4966349;28;92168;-86
2023/06/03 05:37:05;;;;;;;71.97;51.33;;;17.10;73.80;;;;;;4971600;28;90119;-85
2023/06/03 05:39:30;;;;;;;71.60;50.63;;;17.20;73.30;;;;;;4974477;28;90453;-86
2023/06/03 05:41:56;;;;;;;69.78;50.88;;;17.10;73.90;;;;;;4962589;28;89289;-85
2023/06/03 05:44:21;;;;;;;70.85;51.58;;;17.20;73.80;;;;;;4963459;28;93037;-85
2023/06/03 05:46:47;;;;;;;71.20;51.13;;;17.20;72.80;;;;;;4970428;28;92785;-85
2023/06/03 05:49:13;;;;;;;71.25;51.53;;;17.20;73.10;;;;;;4963724;28;89067;-85
2023/06/03 05:51:38;;;;;;;70.07;50.90;;;17.20;73.40;;;;;;4973395;28;89220;-86
2023/06/03 05:54:04;;;;;;;70.57;50.72;;;17.30;73.40;;;;;;4970028;28;91793;-86
2023/06/03 05:56:30;;;;;;;71.38;50.72;;;17.30;73.40;;;;;;4991559;28;92396;-85
2023/06/03 05:58:58;;;;;;;71.78;50.85;;;17.30;73.20;;;;;;4971992;28;89609;-86
2023/06/03 06:01:24;;;;;;;71.22;50.88;;;17.40;73.20;;;;;;4965615;28;90023;-85
2023/06/03 06:03:50;;;;;;;69.82;50.85;;;17.40;72.70;;;;;;4961954;28;93630;-86
2023/06/03 06:06:16;;;;;;;72.10;51.15;;;17.40;73.20;;;;;;4964715;28;93136;-86
2023/06/03 06:08:43;;;;;;;70.05;51.30;;;17.40;73.00;;;;;;4972075;28;89065;-86
2023/06/03 06:11:10;;;;;;;70.38;51.05;;;17.50;72.70;;;;;;4984775;28;89753;-86
2023/06/03 06:13:35;;;;;;;72.90;51.30;;;17.50;72.70;;;;;;4970235;28;93256;-86
2023/06/03 06:16:03;;;;;;;70.20;51.03;;;17.50;72.60;;;;;;4969013;28;92351;-84
2023/06/03 06:18:31;;;;;;;72.25;51.13;;;17.50;72.20;;;;;;4964572;28;89237;-86
2023/06/03 06:20:58;;;;;;;72.28;50.92;;;17.50;72.10;;;;;;4972687;28;89458;-85
2023/06/03 06:23:24;;;;;;;69.75;51.00;;;17.50;72.70;;;;;;4967045;28;92621;-85
2023/06/03 06:25:51;;;;;;;70.00;51.10;;;17.50;72.50;;;;;;4965702;28;93620;-86
2023/06/03 06:28:18;;;;;;;72.47;51.28;;;17.60;72.40;;;;;;4983503;28;90770;-85
2023/06/03 06:30:44;;;;;;;72.47;51.50;;;17.60;72.40;;;;;;4970029;28;89796;-85
2023/06/03 06:33:16;;;;;;;70.55;51.13;;;17.60;72.10;;;;;;4970362;28;89726;-85
2023/06/03 06:35:42;;;;;;;;;;;17.60;71.90;;;;;;4970337;28;89515;-85
2023/06/03 06:38:08;;;;;;;72.22;51.10;;;17.70;72.00;;;;;;4971513;28;89221;-86
2023/06/03 06:40:34;;;;;;;70.82;50.88;;;17.70;71.80;;;;;;4965209;28;89205;-86
2023/06/03 06:43:00;;;;;;;73.45;51.25;;;17.70;71.80;;;;;;4968991;28;92391;-86
2023/06/03 06:45:33;;;;;;;73.68;51.58;;;17.80;71.60;;;;;;4966477;28;91151;-86
2023/06/03 06:48:12;;;;;;;72.28;51.47;;;17.80;71.50;;;;;;4967281;28;88889;-86
2023/06/03 06:50:50;;;;;;;85.70;61.38;;;17.80;71.50;;;;;;4984503;28;89552;-87
2023/06/03 06:53:18;;;;;;;113.43;81.60;;;17.80;71.50;;;;;;4979274;28;91077;-86
2023/06/03 06:56:00;;;;;;;91.97;66.38;;;17.90;71.80;;;;;;4967518;28;93234;-87
2023/06/03 06:58:30;;;;;;;80.78;57.75;;;17.90;71.50;;;;;;4980373;28;89155;-86
2023/06/03 07:00:57;;;;;;;78.63;56.13;;;18.00;71.10;;;;;;4964293;28;89431;-86
2023/06/03 07:03:23;;;;;;;77.07;54.65;;;18.00;70.90;;;;;;4967550;28;90305;-87
2023/06/03 07:05:52;;;;;;;76.68;54.67;;;18.00;70.70;;;;;;4968903;28;92664;-85
2023/06/03 07:08:18;;;;;;;75.43;54.20;;;18.00;70.50;;;;;;4962168;28;89386;-86
2023/06/03 07:10:44;;;;;;;76.80;54.60;;;18.10;70.40;;;;;;4964902;28;89574;-85
2023/06/03 07:13:13;;;;;;;76.65;54.47;;;18.10;70.20;;;;;;4963486;28;89718;-85
2023/06/03 07:15:39;;;;;;;76.65;54.45;;;18.10;70.20;;;;;;4966084;28;90447;-86
2023/06/03 07:18:05;;;;;;;76.88;54.25;;;18.10;70.10;;;;;;4965766;28;89836;-86
2023/06/03 07:20:38;;;;;;;77.10;54.35;;;18.20;70.20;;;;;;4980843;28;90744;-87
2023/06/03 07:23:10;;;;;;;77.88;54.63;;;18.30;70.10;;;;;;4960291;28;90130;-87
2023/06/03 07:25:37;;;;;;;79.10;54.35;;;18.30;70.00;;;;;;4966532;28;90368;-88
2023/06/03 07:28:07;;;;;;;75.32;53.58;;;18.30;70.00;;;;;;4973080;28;89781;-86
2023/06/03 07:30:35;;;;;;;85.72;53.70;;;18.30;70.40;;;;;;4973176;28;90578;-86
2023/06/03 07:33:04;;;;;;;74.65;53.47;;;18.20;70.70;;;;;;4961104;28;92361;-88
2023/06/03 07:35:30;;;;;;;77.72;53.97;;;18.30;71.00;;;;;;4974175;28;92089;-88
2023/06/03 07:37:56;;;;;;;75.25;53.35;;;18.30;72.40;;;;;;4976811;28;89852;-87
2023/06/03 07:40:46;;;;;;;80.55;54.55;;;18.30;73.50;;;;;;4973436;28;89048;-87
2023/06/03 07:43:12;;;;;;;77.82;53.97;;;18.40;77.70;;;;;;4969851;28;90684;-86
2023/06/03 07:45:38;;;;;;;78.38;53.58;;;18.40;76.80;;;;;;4974545;28;90759;-86
2023/06/03 07:48:07;;;;;;;78.50;55.67;;;18.50;76.60;;;;;;4984641;28;89120;-87
2023/06/03 07:50:33;;;;;;;80.00;56.15;;;18.50;79.00;;;;;;4963926;28;90780;-87
2023/06/03 07:53:03;;;;;;;81.38;56.33;;;18.50;81.90;;;;;;4969331;28;92764;-87
2023/06/03 07:55:38;;;;;;;83.85;56.28;;;18.60;83.50;;;;;;4984422;28;91881;-85
2023/06/03 07:58:04;;;;;;;80.95;55.38;;;18.60;86.80;;;;;;4981799;28;89216;-88
2023/06/03 08:00:29;;;;;;;75.65;53.53;;;18.70;85.90;;;;;;4969803;22;92303;-53
2023/06/03 08:02:55;;;;;;;79.03;53.85;;;18.80;70.00;;;;;;4957509;28;90925;-57
2023/06/03 08:05:32;;;;;;;77.95;53.40;;;18.90;67.50;;;;;;4948845;28;90990;-52
2023/06/03 08:07:58;;;;;;;79.78;53.90;;;19.00;65.90;;;;;;4960145;28;95487;-55
2023/06/03 08:10:25;;;;;;;81.75;53.63;;;19.20;68.60;;;;;;4954629;28;90095;-57
2023/06/03 08:12:52;;;;;;;76.38;53.85;;;19.50;65.00;;;;;;4960804;28;91160;-53
2023/06/03 08:15:27;;;;;;;76.32;54.00;;;19.60;62.70;;;;;;4956144;28;90594;-57
2023/06/03 08:17:54;;;;;;;76.90;53.65;;;19.70;62.10;;;;;;4953883;28;89924;-50
2023/06/03 08:20:24;;;;;;;76.32;53.35;;;19.70;62.50;;;;;;4957467;28;91502;-55
2023/06/03 08:22:50;;;;;;;82.00;53.67;;;19.70;60.30;;;;;;4963642;28;89899;-55
2023/06/03 08:25:16;;;;;;;77.60;53.22;;;19.70;60.60;;;;;;4952343;28;88748;-48
2023/06/03 08:27:42;;;;;;;77.53;53.13;;;19.70;59.50;;;;;;4954165;28;94658;-48
2023/06/03 08:30:08;;;;;;;77.20;53.17;;;19.70;59.40;;;;;;4960542;28;89265;-55
2023/06/03 08:32:40;;;;;;;79.85;53.60;;;19.70;59.50;;;;;;4954083;28;91385;-47
2023/06/03 08:35:10;;;;;;;81.25;54.35;;;19.80;59.40;;;;;;4951323;28;89558;-56
2023/06/03 08:37:36;;;;;;;79.57;53.70;;;19.80;60.50;;;;;;4959500;28;90219;-48
2023/06/03 08:40:07;;;;;;;85.28;54.05;;;19.80;58.40;;;;;;4959630;28;89430;-55
2023/06/03 08:42:43;;;;;;;79.43;53.60;;;19.90;59.60;;;;;;4957135;28;90159;-53
2023/06/03 08:45:16;;;;;;;78.00;53.00;;;20.00;57.60;;;;;;4951893;28;90338;-53
2023/06/03 08:48:00;;;;;;;78.72;53.33;;;19.90;57.00;;;;;;4958016;28;89171;-53
2023/06/03 08:50:27;;;;;;;75.53;52.42;;;19.90;57.20;;;;;;4956345;28;88744;-55
2023/06/03 08:52:55;;;;;;;79.03;52.60;;;19.90;52.80;;;;;;4960222;28;89854;-52
2023/06/03 08:55:21;;;;;;;74.88;52.83;;;19.90;54.60;;;;;;4955809;28;89416;-54
2023/06/03 08:57:52;;;;;;;80.20;53.03;;;20.10;55.70;;;;;;4952390;28;92261;-52
2023/06/03 09:00:23;;;;;;;78.28;53.42;;;20.10;54.90;;;;;;4956561;28;89435;-49
2023/06/03 09:02:50;;;;;;;82.40;53.25;;;20.20;54.20;;;;;;4962187;28;89191;-52
2023/06/03 09:05:16;;;;;;;79.65;53.30;;;20.30;54.30;;;;;;4955810;28;90201;-47
2023/06/03 09:07:45;;;;;;;77.45;53.22;;;20.30;54.20;;;;;;4960954;28;90753;-47
2023/06/03 09:10:12;;;;;;;78.18;53.60;;;20.40;53.90;;;;;;4954038;28;89286;-49
2023/06/03 09:12:39;;;;;;;80.50;53.65;;;20.30;54.00;;;;;;4955037;28;89455;-54
2023/06/03 09:15:06;;;;;;;77.97;52.53;;;20.40;53.20;;;;;;4949849;28;89801;-54
2023/06/03 09:17:34;;;;;;;77.40;53.10;;;20.30;50.70;;;;;;4947211;28;90826;-53
2023/06/03 09:20:02;;;;;;;75.30;52.55;;;20.30;52.90;;;;;;4948391;28;93834;-56
2023/06/03 09:22:28;;;;;;;75.60;52.50;;;20.40;52.40;;;;;;4964015;28;96131;-45
2023/06/03 09:24:54;;;;;;;75.35;52.55;;;20.50;51.90;;;;;;4937708;28;94661;-49
2023/06/03 09:27:20;;;;;;;76.68;52.83;;;20.50;52.40;;;;;;4941756;28;90548;-52
2023/06/03 09:29:46;;;;;;;76.45;52.65;;;20.50;50.20;;;;;;4946544;28;90214;-51
2023/06/03 09:32:11;;;;;;;74.93;52.80;;;20.50;49.90;;;;;;4948682;28;89782;-52
2023/06/03 09:34:37;;;;;;;74.15;52.45;;;20.40;49.00;;;;;;4952848;28;89847;-53
2023/06/03 09:37:11;;;;;;;75.55;52.78;;;20.40;48.40;;;;;;4954021;28;89533;-57
2023/06/03 09:39:37;;;;;;;79.10;52.85;;;20.40;48.70;;;;;;4951672;28;89065;-55
2023/06/03 09:42:03;;;;;;;78.00;52.67;;;20.50;51.00;;;;;;4952458;28;89407;-55
2023/06/03 09:44:41;;;;;;;75.90;52.75;;;20.60;48.40;;;;;;4947243;28;90043;-56
2023/06/03 09:47:07;;;;;;;78.93;52.60;;;20.70;50.50;;;;;;4956158;28;91222;-56
2023/06/03 09:49:32;;;;;;;96.57;55.83;;;20.70;48.20;;;;;;4953157;28;94081;-52
2023/06/03 09:51:58;;;;;;;89.30;55.13;;;20.70;54.00;;;;;;4955325;28;89968;-50
2023/06/03 09:54:24;;;;;;;85.88;54.38;;;20.80;50.80;;;;;;4955733;28;94373;-57
2023/06/03 09:56:53;;;;;;;77.68;52.88;;;20.70;48.40;;;;;;4960927;28;89897;-53
2023/06/03 09:59:21;;;;;;;78.93;52.67;;;20.80;48.40;;;;;;4945529;28;89727;-47
2023/06/03 10:01:52;;;;;;;80.50;53.13;;;20.80;47.40;;;;;;4956676;28;91803;-57
2023/06/03 10:04:20;;;;;;;;;;;20.90;48.00;;;;;;4943352;28;89715;-51
2023/06/03 10:06:47;;;;;;;79.93;52.78;;;20.90;49.20;;;;;;4948568;28;94651;-55
2023/06/03 10:09:25;;;;;;;74.47;52.38;;;20.80;48.30;;;;;;4947460;28;89532;-49
2023/06/03 10:11:52;;;;;;;76.70;52.92;;;20.90;49.10;;;;;;4946850;28;91841;-46
2023/06/03 10:14:25;;;;;;;79.35;53.25;;;20.90;50.60;;;;;;4949859;28;90557;-48
2023/06/03 10:17:05;;;;;;;79.57;52.72;;;21.00;49.50;;;;;;4947198;28;89563;-54
2023/06/03 10:20:04;;;;;;;78.35;52.63;;;21.00;49.00;;;;;;4955283;28;90772;-53
2023/06/03 10:22:30;;;;;;;78.75;52.78;;;21.10;48.10;;;;;;4951329;28;90775;-56
2023/06/03 10:24:57;;;;;;;77.63;52.70;;;21.10;47.30;;;;;;4958227;28;89435;-58
2023/06/03 10:27:23;;;;;;;79.00;52.97;;;21.10;50.10;;;;;;4955771;28;89194;-55
2023/06/03 10:29:53;;;;;;;77.15;52.80;;;21.10;47.20;;;;;;4959332;28;88620;-51
2023/06/03 10:32:21;;;;;;;75.93;52.58;;;21.10;46.60;;;;;;4955313;28;90412;-47
2023/06/03 10:34:48;;;;;;;77.80;52.63;;;21.10;49.00;;;;;;4949274;28;89668;-39
2023/06/03 10:37:14;;;;;;;75.30;52.35;;;21.20;47.60;;;;;;4952676;28;90927;-43
2023/06/03 10:39:43;;;;;;;75.72;52.70;;;21.10;46.10;;;;;;4954423;28;94338;-43
2023/06/03 10:42:11;;;;;;;77.95;52.75;;;21.20;47.40;;;;;;4956938;28;89587;-40
2023/06/03 10:44:36;;;;;;;76.00;52.60;;;21.30;48.70;;;;;;4956862;28;89625;-42
2023/06/03 10:47:17;;;;;;;77.78;52.50;;;21.30;45.70;;;;;;4954345;28;89506;-42
2023/06/03 10:50:23;;;;;;;76.95;52.70;;;21.20;44.10;;;;;;4951756;28;94301;-40
2023/06/03 10:53:12;;;;;;;75.13;52.40;;;21.20;44.40;;;;;;4950617;28;90225;-40
2023/06/03 10:56:14;;;;;;;78.00;52.90;;;21.30;45.70;;;;;;4952753;28;89842;-40
2023/06/03 10:58:42;;;;;;;75.93;52.40;;;21.40;44.30;;;;;;4949791;28;90418;-41
2023/06/03 11:01:08;;;;;;;76.82;52.50;;;21.40;44.00;;;;;;4948466;28;94211;-44
2023/06/03 11:03:55;;;;;;;75.40;52.50;;;21.40;46.50;;;;;;4948109;28;91568;-41
2023/06/03 11:06:21;;;;;;;76.25;52.55;;;21.50;44.30;;;;;;4944196;28;94251;-41
2023/06/03 11:09:00;;;;;;;75.53;52.72;;;21.40;44.30;;;;;;4952279;28;91033;-41
2023/06/03 11:11:41;;;;;;;76.10;52.75;;;21.50;45.00;;;;;;4953549;28;90377;-42
2023/06/03 11:14:11;;;;;;;77.80;53.05;;;21.50;44.50;;;;;;4955288;28;89614;-57
2023/06/03 11:16:56;;;;;;;76.45;52.90;;;21.60;45.20;;;;;;4951348;28;90514;-51
2023/06/03 11:19:34;;;;;;;75.88;52.95;;;21.70;46.60;;;;;;4952447;28;89658;-54
2023/06/03 11:22:07;;;;;;;77.22;53.00;;;21.70;44.50;;;;;;4954602;28;89065;-57
2023/06/03 11:24:38;;;;;;;75.75;52.72;;;21.60;43.90;;;;;;4949861;28;89523;-57
2023/06/03 11:27:13;;;;;;;78.88;53.13;;;21.70;45.80;;;;;;4952283;28;90397;-53
2023/06/03 11:29:45;;;;;;;77.20;52.95;;;21.80;45.30;;;;;;4950244;28;91015;-54
2023/06/03 11:32:32;;;;;;;78.43;53.05;;;21.70;43.40;;;;;;4952943;28;89524;-53
2023/06/03 11:35:03;;;;;;;79.60;53.35;;;21.70;44.60;;;;;;4945976;28;90404;-57
2023/06/03 11:37:41;;;;;;;78.47;52.85;;;21.80;45.70;;;;;;4948475;28;89424;-54
2023/06/03 11:40:15;;;;;;;84.13;53.40;;;21.80;44.30;;;;;;4948586;28;89759;-58
2023/06/03 11:43:04;;;;;;;75.72;52.95;;;21.80;43.80;;;;;;4954043;28;91456;-54
2023/06/03 11:45:32;;;;;;;77.70;52.92;;;21.80;44.20;;;;;;4959262;28;89935;-57
2023/06/03 11:48:03;;;;;;;78.63;52.97;;;21.80;41.80;;;;;;4952802;28;89213;-58
2023/06/03 11:50:30;;;;;;;;;;;21.90;45.60;;;;;;4959909;28;90166;-56
2023/06/03 11:52:56;;;;;;;74.80;52.58;;;22.00;44.50;;;;;;4960448;28;89746;-50
2023/06/03 11:55:29;;;;;;;77.28;52.88;;;22.00;43.30;;;;;;4943616;28;92844;-53
2023/06/03 11:58:06;;;;;;;77.55;52.75;;;22.00;43.90;;;;;;4948272;28;91058;-56
2023/06/03 12:00:32;;;;;;;78.85;53.08;;;21.90;43.50;;;;;;4943269;28;91539;-57
2023/06/03 12:02:58;;;;;;;77.70;52.95;;;22.00;43.10;;;;;;4953725;28;89942;-57
2023/06/03 12:05:23;;;;;;;76.57;52.92;;;22.00;43.70;;;;;;4957477;28;89867;-58
2023/06/03 12:07:57;;;;;;;76.18;52.83;;;22.00;44.00;;;;;;4952697;28;95705;-53
2023/06/03 12:10:23;;;;;;;76.38;52.97;;;22.00;42.70;;;;;;4945897;28;94735;-55
2023/06/03 12:12:53;;;;;;;76.80;53.15;;;22.00;40.40;;;;;;4954268;28;89285;-57
2023/06/03 12:15:20;;;;;;;79.10;53.20;;;22.10;42.00;;;;;;4950456;28;91069;-57
2023/06/03 12:17:46;;;;;;;75.75;53.03;;;22.10;41.60;;;;;;4956062;28;89599;-56
2023/06/03 12:20:28;;;;;;;77.93;53.10;;;22.10;40.90;;;;;;4955705;28;90094;-52
2023/06/03 12:23:05;;;;;;;80.53;53.35;;;22.10;42.00;;;;;;4962348;28;89397;-47
2023/06/03 12:25:34;;;;;;;78.18;53.53;;;22.10;43.90;;;;;;4947924;28;90181;-52
2023/06/03 12:28:35;;;;;;;82.10;53.38;;;22.20;43.70;;;;;;4931982;28;91203;-54
2023/06/03 12:31:14;;;;;;;76.95;53.45;;;22.20;45.90;;;;;;4908660;28;89202;-49
2023/06/03 12:33:41;;;;;;;78.05;52.85;;;22.20;44.40;;;;;;4946081;28;90352;-56
2023/06/03 12:36:08;;;;;;;78.97;53.38;;;22.20;40.80;;;;;;4952427;28;90025;-54
2023/06/03 12:38:34;;;;;;;79.47;53.50;;;22.20;44.60;;;;;;4954347;28;88883;-47